Time;durP1;ratioP1;P1;durP2;ratioP2;P2;SDS_P1;SDS_P2;PMS_P1;PMS_P2;Temp;Humidity;BMP_temperature;BMP_pressure;BME280_temperature;BME280_humidity;BME280_pressure;Samples;Min_cycle;Max_cycle;Signal;HPM_P1;HPM_P2
2022/08/20 00:00:46;;;;;;;;;;;23.20;73.10;;;;;;5049814;28;20010;-68
2022/08/20 00:03:22;;;;;;;;;;;23.20;73.10;;;;;;5052933;28;19927;-68
2022/08/20 00:05:51;;;;;;;;;;;23.20;73.20;;;;;;5048854;28;19990;-68
2022/08/20 00:08:18;;;;;;;;;;;23.20;73.40;;;;;;5047397;28;20014;-68
2022/08/20 00:10:44;;;;;;;;;;;23.20;73.50;;;;;;5046649;28;19913;-68
2022/08/20 00:13:11;;;;;;;;;;;23.20;73.60;;;;;;5048350;28;20381;-68
2022/08/20 00:15:37;;;;;;;;;;;23.10;73.70;;;;;;5047286;28;19912;-68
2022/08/20 00:18:03;;;;;;;;;;;23.10;73.70;;;;;;5047516;28;19909;-69
2022/08/20 00:20:30;;;;;;;;;;;23.10;73.70;;;;;;5047045;28;20778;-69
2022/08/20 00:22:56;;;;;;;;;;;23.10;74.00;;;;;;5047164;28;19917;-69
2022/08/20 00:25:22;;;;;;;;;;;23.10;73.90;;;;;;5047333;28;19924;-68
2022/08/20 00:27:47;;;;;;;;;;;23.10;74.00;;;;;;5046736;28;19913;-69
2022/08/20 00:30:13;;;;;;;;;;;23.10;74.10;;;;;;5059371;28;19928;-68
2022/08/20 00:32:42;;;;;;;;;;;23.00;74.10;;;;;;5048451;28;19913;-69
2022/08/20 00:35:07;;;;;;;;;;;23.00;74.30;;;;;;5047521;28;19921;-68
2022/08/20 00:37:33;;;;;;;;;;;23.00;74.40;;;;;;5051831;28;19989;-67
2022/08/20 00:40:00;;;;;;;;;;;23.00;74.80;;;;;;5046675;28;19923;-68
2022/08/20 00:42:25;;;;;;;;;;;23.00;74.70;;;;;;5052947;28;20457;-68
2022/08/20 00:44:51;;;;;;;;;;;22.90;74.90;;;;;;5065298;28;19916;-68
2022/08/20 00:47:16;;;;;;;;;;;22.90;74.90;;;;;;5050606;28;19998;-68
2022/08/20 00:49:42;;;;;;;;;;;22.90;74.80;;;;;;5046262;28;20027;-69
2022/08/20 00:52:07;;;;;;;;;;;22.90;75.00;;;;;;5046052;28;19912;-68
2022/08/20 00:54:53;;;;;;;;;;;22.90;75.30;;;;;;5046747;28;19913;-68
2022/08/20 00:57:28;;;;;;;;;;;22.90;75.20;;;;;;5060117;28;19993;-68
2022/08/20 00:59:53;;;;;;;;;;;22.90;75.40;;;;;;5062860;28;19912;-69
2022/08/20 01:02:21;;;;;;;;;;;22.80;75.40;;;;;;5051485;28;19939;-69
2022/08/20 01:04:53;;;;;;;;;;;22.80;75.60;;;;;;5048686;28;19959;-69
2022/08/20 01:07:20;;;;;;;;;;;22.80;75.40;;;;;;5048749;28;19919;-69
2022/08/20 01:09:45;;;;;;;;;;;22.80;75.60;;;;;;5046172;28;19912;-69
2022/08/20 01:12:12;;;;;;;;;;;22.80;75.80;;;;;;5046909;28;19916;-69
2022/08/20 01:14:43;;;;;;;;;;;22.80;75.60;;;;;;5045750;28;19923;-69
2022/08/20 01:17:12;;;;;;;;;;;22.80;75.60;;;;;;5028564;28;20648;-69
2022/08/20 01:19:43;;;;;;;;;;;22.80;75.50;;;;;;5047079;28;20008;-69
2022/08/20 01:24:56;;;;;;;;;;;22.80;75.80;;;;;;5046277;28;19920;-69
2022/08/20 01:27:22;;;;;;;;;;;22.70;75.90;;;;;;5046237;28;20100;-69
2022/08/20 01:29:49;;;;;;;;;;;22.70;76.00;;;;;;5049932;28;20009;-69
2022/08/20 01:32:14;;;;;;;;;;;22.70;76.10;;;;;;5053250;28;19935;-69
2022/08/20 01:34:40;;;;;;;;;;;22.70;76.00;;;;;;5063142;28;20381;-69
2022/08/20 01:37:05;;;;;;;;;;;22.70;76.30;;;;;;5053144;28;20587;-69
2022/08/20 01:39:33;;;;;;;;;;;22.70;76.00;;;;;;5052671;28;19921;-69
2022/08/20 01:42:01;;;;;;;;;;;22.70;76.60;;;;;;5052848;28;20103;-69
2022/08/20 01:44:28;;;;;;;;;;;22.70;76.20;;;;;;5069140;28;20553;-70
2022/08/20 01:46:54;;;;;;;;;;;22.60;76.20;;;;;;5068949;28;19912;-69
2022/08/20 01:49:22;;;;;;;;;;;22.60;76.30;;;;;;5069201;28;19919;-69
2022/08/20 01:51:48;;;;;;;;;;;22.60;76.30;;;;;;5050810;28;19909;-69
2022/08/20 01:54:13;;;;;;;;;;;22.60;76.30;;;;;;5057749;28;19969;-69
2022/08/20 01:56:51;;;;;;;;;;;22.60;76.40;;;;;;5050115;28;19924;-69
2022/08/20 01:59:17;;;;;;;;;;;22.60;76.30;;;;;;5049950;28;19913;-69
2022/08/20 02:01:43;;;;;;;;;;;22.60;77.00;;;;;;5054587;28;19912;-69
2022/08/20 02:04:09;;;;;;;;;;;22.50;76.70;;;;;;5034339;28;19916;-69
2022/08/20 02:06:40;;;;;;;;;;;22.50;76.50;;;;;;5051395;28;19912;-69
2022/08/20 02:09:06;;;;;;;;;;;22.50;77.40;;;;;;5049847;28;20516;-69
2022/08/20 02:11:33;;;;;;;;;;;22.50;76.80;;;;;;5050355;28;20008;-69
2022/08/20 02:13:59;;;;;;;;;;;22.50;76.90;;;;;;5049643;28;20047;-70
2022/08/20 02:16:28;;;;;;;;;;;22.50;76.80;;;;;;5049451;28;19951;-69
2022/08/20 02:18:57;;;;;;;;;;;22.50;76.90;;;;;;5049387;28;19920;-69
2022/08/20 02:21:24;;;;;;;;;;;22.50;77.00;;;;;;5054618;28;19943;-69
2022/08/20 02:23:49;;;;;;;;;;;22.50;77.30;;;;;;5049190;28;19923;-69
2022/08/20 02:26:17;;;;;;;;;;;22.40;76.90;;;;;;5049317;28;19912;-69
2022/08/20 02:28:47;;;;;;;;;;;22.40;77.20;;;;;;5037929;28;19917;-69
2022/08/20 02:31:12;;;;;;;;;;;22.40;77.00;;;;;;5054742;28;19917;-69
2022/08/20 02:33:38;;;;;;;;;;;22.40;77.20;;;;;;5051003;28;19920;-69
2022/08/20 02:36:04;;;;;;;;;;;22.40;77.20;;;;;;5055040;28;19969;-69
2022/08/20 02:38:33;;;;;;;;;;;22.40;77.20;;;;;;5049148;28;19920;-69
2022/08/20 02:41:00;;;;;;;;;;;22.40;77.50;;;;;;5051485;28;19916;-69
2022/08/20 02:43:25;;;;;;;;;;;22.30;77.40;;;;;;5064339;28;19926;-69
2022/08/20 02:45:51;;;;;;;;;;;22.30;77.60;;;;;;5041671;28;19917;-69
2022/08/20 02:48:19;;;;;;;;;;;22.30;77.40;;;;;;5048953;28;19944;-69
2022/08/20 02:50:50;;;;;;;;;;;22.30;77.60;;;;;;5048775;28;19916;-70
2022/08/20 02:53:15;;;;;;;;;;;22.30;77.70;;;;;;5048836;28;19913;-69
2022/08/20 02:55:41;;;;;;;;;;;22.30;77.50;;;;;;5031148;28;19913;-69
2022/08/20 02:58:07;;;;;;;;;;;22.30;77.60;;;;;;5048800;28;19913;-70
2022/08/20 03:00:32;;;;;;;;;;;22.30;77.60;;;;;;5051661;28;20401;-69
2022/08/20 03:02:59;;;;;;;;;;;22.20;77.60;;;;;;5053374;28;19916;-70
2022/08/20 03:05:24;;;;;;;;;;;22.20;77.70;;;;;;5050832;28;19912;-70
2022/08/20 03:07:55;;;;;;;;;;;22.20;77.90;;;;;;5048509;28;20094;-70
2022/08/20 03:10:22;;;;;;;;;;;22.20;78.40;;;;;;5059517;28;19923;-70
2022/08/20 03:12:47;;;;;;;;;;;22.20;78.10;;;;;;5054748;28;20348;-70
2022/08/20 03:15:13;;;;;;;;;;;22.20;78.00;;;;;;5030459;28;19913;-69
2022/08/20 03:17:38;;;;;;;;;;;22.20;78.10;;;;;;5054309;28;19920;-69
2022/08/20 03:20:06;;;;;;;;;;;22.20;78.00;;;;;;5062628;28;19974;-69
2022/08/20 03:22:31;;;;;;;;;;;22.10;77.80;;;;;;5040529;28;19916;-70
2022/08/20 03:24:57;;;;;;;;;;;22.10;78.40;;;;;;5048801;28;19919;-69
2022/08/20 03:27:22;;;;;;;;;;;22.10;78.60;;;;;;5048472;28;19915;-69
2022/08/20 03:29:48;;;;;;;;;;;22.10;78.70;;;;;;5049703;28;19912;-70
2022/08/20 03:32:13;;;;;;;;;;;22.10;78.70;;;;;;5056016;28;20380;-69
2022/08/20 03:34:39;;;;;;;;;;;22.10;79.10;;;;;;5061138;28;19924;-70
2022/08/20 03:37:04;;;;;;;;;;;22.10;78.80;;;;;;5050558;28;19955;-69
2022/08/20 03:39:30;;;;;;;;;;;22.00;78.70;;;;;;5062803;28;19909;-69
2022/08/20 03:41:55;;;;;;;;;;;22.00;79.00;;;;;;5049094;28;19915;-70
2022/08/20 03:44:21;;;;;;;;;;;22.00;78.80;;;;;;5055762;28;20023;-70
2022/08/20 03:46:47;;;;;;;;;;;22.00;78.70;;;;;;5054809;28;19970;-69
2022/08/20 03:49:13;;;;;;;;;;;22.00;78.70;;;;;;5054972;28;19912;-70
2022/08/20 03:51:38;;;;;;;;;;;22.00;79.20;;;;;;5047656;28;20555;-69
2022/08/20 03:54:04;;;;;;;;;;;22.00;78.90;;;;;;5047946;28;19919;-69
2022/08/20 03:56:30;;;;;;;;;;;21.90;79.10;;;;;;5047600;28;19913;-70
2022/08/20 03:58:56;;;;;;;;;;;21.90;79.60;;;;;;5029599;28;20328;-70
2022/08/20 04:01:21;;;;;;;;;;;21.90;79.60;;;;;;5049674;28;19912;-70
2022/08/20 04:03:47;;;;;;;;;;;21.90;79.60;;;;;;5055423;28;20309;-69
2022/08/20 04:06:12;;;;;;;;;;;21.90;79.70;;;;;;5051934;28;19952;-69
2022/08/20 04:08:40;;;;;;;;;;;21.90;79.50;;;;;;5048897;28;19916;-70
2022/08/20 04:11:05;;;;;;;;;;;21.90;79.40;;;;;;5031219;28;20316;-69
2022/08/20 04:13:31;;;;;;;;;;;21.90;79.60;;;;;;5047598;28;19927;-69
2022/08/20 04:15:59;;;;;;;;;;;21.90;79.40;;;;;;5047334;28;20282;-69
2022/08/20 04:18:25;;;;;;;;;;;21.80;80.00;;;;;;5046979;28;19912;-70
2022/08/20 04:20:52;;;;;;;;;;;21.80;79.70;;;;;;5047144;28;19917;-69
2022/08/20 04:23:17;;;;;;;;;;;21.80;80.80;;;;;;5047511;28;19985;-69
2022/08/20 04:25:44;;;;;;;;;;;21.80;80.30;;;;;;5048319;28;20701;-69
2022/08/20 04:28:14;;;;;;;;;;;21.80;79.80;;;;;;5047372;28;19912;-70
2022/08/20 04:30:41;;;;;;;;;;;21.70;79.80;;;;;;5054151;28;19958;-69
2022/08/20 04:33:07;;;;;;;;;;;21.70;80.00;;;;;;5042756;28;19917;-69
2022/08/20 04:35:32;;;;;;;;;;;21.70;80.30;;;;;;5030349;28;19943;-70
2022/08/20 04:37:58;;;;;;;;;;;21.70;80.00;;;;;;5047082;28;19921;-69
2022/08/20 04:43:07;;;;;;;;;;;21.70;80.40;;;;;;5046699;28;19924;-70
2022/08/20 04:45:33;;;;;;;;;;;21.70;80.90;;;;;;5047667;28;20402;-69
2022/08/20 04:48:04;;;;;;;;;;;21.70;81.40;;;;;;5049881;28;19916;-70
2022/08/20 04:50:34;;;;;;;;;;;21.70;80.50;;;;;;5031514;28;20365;-69
2022/08/20 04:53:01;;;;;;;;;;;21.70;80.40;;;;;;5046741;28;19909;-69
2022/08/20 04:55:26;;;;;;;;;;;21.60;80.40;;;;;;5046352;28;19959;-69
2022/08/20 04:57:53;;;;;;;;;;;21.70;80.40;;;;;;5046517;28;19916;-69
2022/08/20 05:00:19;;;;;;;;;;;21.60;80.80;;;;;;5049245;28;19917;-69
2022/08/20 05:02:44;;;;;;;;;;;21.70;81.70;;;;;;5051897;28;19921;-69
2022/08/20 05:05:10;;;;;;;;;;;21.60;81.60;;;;;;5049750;28;19936;-69
2022/08/20 05:07:43;;;;;;;;;;;21.60;81.50;;;;;;5032862;28;20361;-69
2022/08/20 05:10:10;;;;;;;;;;;21.60;81.70;;;;;;5046445;28;19943;-69
2022/08/20 05:12:35;;;;;;;;;;;21.60;81.60;;;;;;5046136;28;19919;-69
2022/08/20 05:15:01;;;;;;;;;;;21.70;80.80;;;;;;5046618;28;19913;-70
2022/08/20 05:17:28;;;;;;;;;;;21.70;81.00;;;;;;5045399;28;20444;-69
2022/08/20 05:19:53;;;;;;;;;;;21.60;80.70;;;;;;5046598;28;19917;-69
2022/08/20 05:22:19;;;;;;;;;;;21.70;80.80;;;;;;5045574;28;20651;-69
2022/08/20 05:24:44;;;;;;;;;;;21.70;80.80;;;;;;5046138;28;19919;-69
2022/08/20 05:27:10;;;;;;;;;;;21.60;80.80;;;;;;5046415;28;19913;-69
2022/08/20 05:29:35;;;;;;;;;;;21.70;80.90;;;;;;5045985;28;19944;-70
2022/08/20 05:32:01;;;;;;;;;;;21.60;80.80;;;;;;5063411;28;20767;-69
2022/08/20 05:34:27;;;;;;;;;;;21.70;80.90;;;;;;5059028;28;19920;-69
2022/08/20 05:36:52;;;;;;;;;;;21.60;80.80;;;;;;5052740;28;19916;-69
2022/08/20 05:39:19;;;;;;;;;;;21.60;80.90;;;;;;5045090;28;19920;-69
2022/08/20 05:41:44;;;;;;;;;;;21.60;81.00;;;;;;5044474;28;19913;-69
2022/08/20 05:44:12;;;;;;;;;;;21.60;81.00;;;;;;5044976;28;20698;-69
2022/08/20 05:46:39;;;;;;;;;;;21.60;80.80;;;;;;5045377;28;20046;-69
2022/08/20 05:49:05;;;;;;;;;;;21.60;81.10;;;;;;5044734;28;19940;-69
2022/08/20 05:51:31;;;;;;;;;;;21.60;81.60;;;;;;5044539;28;20285;-69
2022/08/20 05:53:57;;;;;;;;;;;21.60;80.80;;;;;;5046053;28;19917;-70
2022/08/20 05:56:22;;;;;;;;;;;21.60;80.90;;;;;;5044994;28;19908;-70
2022/08/20 05:58:48;;;;;;;;;;;21.60;81.10;;;;;;5044628;28;19963;-69
2022/08/20 06:01:13;;;;;;;;;;;21.60;81.00;;;;;;5047273;28;20320;-69
2022/08/20 06:06:23;;;;;;;;;;;21.60;81.20;;;;;;5062003;28;20352;-69
2022/08/20 06:08:49;;;;;;;;;;;21.60;81.10;;;;;;5058809;28;20007;-69
2022/08/20 06:11:14;;;;;;;;;;;21.60;81.00;;;;;;5056737;28;19917;-69
2022/08/20 06:13:40;;;;;;;;;;;21.60;81.00;;;;;;5049410;28;20014;-69
2022/08/20 06:16:05;;;;;;;;;;;21.60;81.00;;;;;;5051448;28;19987;-69
2022/08/20 06:18:31;;;;;;;;;;;21.60;81.80;;;;;;5046676;28;20581;-69
2022/08/20 06:20:56;;;;;;;;;;;21.60;81.20;;;;;;5064409;28;19927;-69
2022/08/20 06:23:24;;;;;;;;;;;21.60;81.40;;;;;;5064554;28;20627;-69
2022/08/20 06:25:49;;;;;;;;;;;21.60;81.40;;;;;;5046133;28;19919;-69
2022/08/20 06:28:15;;;;;;;;;;;21.60;81.30;;;;;;5054700;28;19912;-69
2022/08/20 06:30:41;;;;;;;;;;;21.60;81.30;;;;;;5054952;28;20722;-69
2022/08/20 06:33:06;;;;;;;;;;;21.60;81.20;;;;;;5053507;28;19912;-69
2022/08/20 06:35:32;;;;;;;;;;;21.60;81.20;;;;;;5035644;28;20011;-69
2022/08/20 06:37:59;;;;;;;;;;;21.60;81.30;;;;;;5049144;28;19913;-69
2022/08/20 06:40:27;;;;;;;;;;;21.60;81.40;;;;;;5049244;28;20526;-70
2022/08/20 06:42:53;;;;;;;;;;;21.60;81.40;;;;;;5043915;28;20353;-69
2022/08/20 06:45:23;;;;;;;;;;;21.60;81.40;;;;;;5049420;28;20038;-69
2022/08/20 06:47:48;;;;;;;;;;;21.60;81.50;;;;;;5054580;28;20030;-70
2022/08/20 06:50:20;;;;;;;;;;;21.70;81.70;;;;;;5057623;28;20023;-70
2022/08/20 06:52:46;;;;;;;;;;;21.70;81.50;;;;;;5052917;28;19985;-69
2022/08/20 06:55:13;;;;;;;;;;;21.70;81.50;;;;;;5048011;28;19917;-69
2022/08/20 06:57:39;;;;;;;;;;;21.70;81.70;;;;;;5047959;28;19982;-69
2022/08/20 07:00:07;;;;;;;;;;;21.70;81.60;;;;;;5051040;28;20322;-69
2022/08/20 07:02:34;;;;;;;;;;;21.70;81.50;;;;;;5054967;28;19928;-70
2022/08/20 07:05:00;;;;;;;;;;;21.70;81.60;;;;;;5048079;28;19920;-69
2022/08/20 07:07:26;;;;;;;;;;;21.70;81.60;;;;;;5053037;28;19913;-69
2022/08/20 07:09:57;;;;;;;;;;;21.80;81.60;;;;;;5047892;28;19913;-70
2022/08/20 07:12:24;;;;;;;;;;;21.80;81.60;;;;;;5047212;28;19913;-69
2022/08/20 07:14:49;;;;;;;;;;;21.80;81.30;;;;;;5048000;28;19966;-69
2022/08/20 07:17:15;;;;;;;;;;;21.90;81.20;;;;;;5049036;28;19995;-69
2022/08/20 07:19:40;;;;;;;;;;;21.90;81.20;;;;;;5047538;28;20028;-70
2022/08/20 07:22:06;;;;;;;;;;;22.00;81.20;;;;;;5047587;28;19913;-69
2022/08/20 07:24:31;;;;;;;;;;;22.00;81.30;;;;;;5056178;28;20026;-69
2022/08/20 07:26:57;;;;;;;;;;;22.00;81.20;;;;;;5062775;28;19912;-69
2022/08/20 07:32:33;;;;;;;;;;;22.00;81.20;;;;;;5059727;28;20317;-69
2022/08/20 07:34:52;;;;;;;;;;;22.10;81.10;;;;;;5058910;28;19928;-69
2022/08/20 07:37:19;;;;;;;;;;;22.10;81.00;;;;;;5061763;28;19920;-69
2022/08/20 07:39:47;;;;;;;;;;;22.10;81.20;;;;;;5049673;28;19919;-69
2022/08/20 07:42:13;;;;;;;;;;;22.10;81.10;;;;;;5059371;28;19928;-69
2022/08/20 07:44:38;;;;;;;;;;;22.10;81.20;;;;;;5066573;28;20390;-70
2022/08/20 07:47:05;;;;;;;;;;;22.00;81.10;;;;;;5065868;28;19913;-70
2022/08/20 07:49:31;;;;;;;;;;;22.10;81.30;;;;;;5066454;28;20508;-69
2022/08/20 07:51:56;;;;;;;;;;;22.10;81.10;;;;;;5059037;28;19923;-69
2022/08/20 07:54:23;;;;;;;;;;;22.10;81.10;;;;;;5066015;28;19990;-69
2022/08/20 07:56:48;;;;;;;;;;;22.10;81.10;;;;;;5066236;28;19944;-69
2022/08/20 07:59:14;;;;;;;;;;;22.10;81.20;;;;;;5049034;28;19956;-70
2022/08/20 08:01:39;;;;;;;;;;;22.20;81.10;;;;;;5068667;28;19909;-69
2022/08/20 08:04:05;;;;;;;;;;;22.20;81.20;;;;;;5055947;28;20283;-69
2022/08/20 08:06:30;;;;;;;;;;;22.20;80.90;;;;;;5053443;28;19913;-69
2022/08/20 08:09:10;;;;;;;;;;;22.30;80.90;;;;;;5046348;28;20603;-70
2022/08/20 08:11:38;;;;;;;;;;;22.30;81.00;;;;;;5046749;28;19908;-69
2022/08/20 08:14:05;;;;;;;;;;;22.30;81.10;;;;;;5046806;28;20668;-69
2022/08/20 08:16:31;;;;;;;;;;;22.40;81.00;;;;;;5046958;28;19992;-69
2022/08/20 08:18:57;;;;;;;;;;;22.40;80.90;;;;;;5047465;28;19984;-69
2022/08/20 08:21:23;;;;;;;;;;;22.50;80.90;;;;;;5047071;28;20420;-69
2022/08/20 08:23:49;;;;;;;;;;;22.50;80.70;;;;;;5048281;28;19925;-69
2022/08/20 08:26:15;;;;;;;;;;;22.60;80.90;;;;;;5054068;28;19958;-69
2022/08/20 08:28:43;;;;;;;;;;;22.60;80.80;;;;;;5066186;28;19997;-69
2022/08/20 08:31:08;;;;;;;;;;;22.60;80.70;;;;;;5058090;28;19920;-69
2022/08/20 08:33:34;;;;;;;;;;;22.60;80.80;;;;;;5050574;28;19913;-69
2022/08/20 08:36:02;;;;;;;;;;;22.60;80.80;;;;;;5059046;28;19931;-69
2022/08/20 08:38:29;;;;;;;;;;;22.70;81.60;;;;;;5053398;28;20000;-69
2022/08/20 08:40:56;;;;;;;;;;;22.70;80.90;;;;;;5046587;28;19916;-69
2022/08/20 08:43:24;;;;;;;;;;;22.70;80.70;;;;;;5061813;28;19924;-69
2022/08/20 08:46:10;;;;;;;;;;;22.70;80.70;;;;;;5047502;28;20597;-69
2022/08/20 08:48:42;;;;;;;;;;;22.70;80.80;;;;;;5060921;28;19913;-70
2022/08/20 08:51:11;;;;;;;;;;;22.70;80.90;;;;;;5065541;28;19912;-69
2022/08/20 08:53:46;;;;;;;;;;;22.70;81.00;;;;;;5065740;28;19912;-69
2022/08/20 08:56:13;;;;;;;;;;;22.80;81.00;;;;;;5065144;28;19923;-70
2022/08/20 08:58:39;;;;;;;;;;;22.80;80.70;;;;;;5040642;28;20002;-69
2022/08/20 09:01:12;;;;;;;;;;;22.90;80.80;;;;;;5055751;28;19967;-69
2022/08/20 09:03:42;;;;;;;;;;;23.00;80.80;;;;;;5053452;28;19983;-69
2022/08/20 09:06:11;;;;;;;;;;;23.00;80.40;;;;;;5050896;28;20003;-70
2022/08/20 09:08:45;;;;;;;;;;;23.00;80.30;;;;;;5046144;28;19913;-69
2022/08/20 09:11:10;;;;;;;;;;;23.00;80.40;;;;;;5045756;28;20023;-70
2022/08/20 09:13:36;;;;;;;;;;;23.00;80.80;;;;;;5047197;28;19921;-70
2022/08/20 09:16:02;;;;;;;;;;;23.00;80.60;;;;;;5046155;28;19913;-69
2022/08/20 09:18:27;;;;;;;;;;;23.10;80.80;;;;;;5062851;28;19916;-69
2022/08/20 09:20:53;;;;;;;;;;;23.10;80.80;;;;;;5064736;28;20395;-69
2022/08/20 09:23:19;;;;;;;;;;;23.10;80.70;;;;;;5064599;28;19916;-69
2022/08/20 09:25:45;;;;;;;;;;;23.10;80.70;;;;;;5064573;28;20242;-69
2022/08/20 09:28:10;;;;;;;;;;;23.20;80.60;;;;;;5065078;28;19913;-69
2022/08/20 09:30:36;;;;;;;;;;;23.20;80.20;;;;;;5060362;28;19978;-68
2022/08/20 09:33:01;;;;;;;;;;;23.30;80.60;;;;;;5056004;28;20478;-69
2022/08/20 09:35:27;;;;;;;;;;;23.30;80.20;;;;;;5058195;28;19920;-68
2022/08/20 09:37:53;;;;;;;;;;;23.30;80.30;;;;;;5046028;28;19913;-69
2022/08/20 09:40:19;;;;;;;;;;;23.30;80.40;;;;;;5053094;28;19912;-69
2022/08/20 09:42:45;;;;;;;;;;;23.40;80.30;;;;;;5059751;28;20011;-68
2022/08/20 09:45:10;;;;;;;;;;;23.30;80.30;;;;;;5064170;28;19920;-68
2022/08/20 09:47:36;;;;;;;;;;;23.30;80.40;;;;;;5046511;28;19913;-68
2022/08/20 09:50:02;;;;;;;;;;;23.40;80.30;;;;;;5045812;28;19921;-69
2022/08/20 09:52:30;;;;;;;;;;;23.30;80.30;;;;;;5045301;28;19963;-68
2022/08/20 09:55:00;;;;;;;;;;;23.40;80.20;;;;;;5058992;28;19913;-68
2022/08/20 09:57:25;;;;;;;;;;;23.40;80.20;;;;;;5064824;28;19913;-69
2022/08/20 09:59:52;;;;;;;;;;;23.40;80.10;;;;;;5064627;28;20564;-69
2022/08/20 10:02:18;;;;;;;;;;;23.40;80.10;;;;;;5064089;28;19912;-70
2022/08/20 10:04:43;;;;;;;;;;;23.40;80.30;;;;;;5055217;28;19924;-69
2022/08/20 10:07:09;;;;;;;;;;;23.40;79.90;;;;;;5065603;28;19927;-69
2022/08/20 10:09:36;;;;;;;;;;;23.50;79.90;;;;;;5062703;28;19919;-69
2022/08/20 10:12:02;;;;;;;;;;;23.60;79.80;;;;;;5066541;28;20009;-69
2022/08/20 10:14:27;;;;;;;;;;;23.60;80.00;;;;;;5063922;28;19913;-69
2022/08/20 10:16:56;;;;;;;;;;;23.60;79.40;;;;;;5061289;28;20057;-68
2022/08/20 10:19:22;;;;;;;;;;;23.70;79.50;;;;;;5031548;28;19920;-68
2022/08/20 10:21:49;;;;;;;;;;;23.70;79.40;;;;;;5050213;28;19913;-68
2022/08/20 10:24:14;;;;;;;;;;;23.70;79.20;;;;;;5049419;28;20468;-68
2022/08/20 10:26:40;;;;;;;;;;;23.60;79.50;;;;;;5049219;28;19917;-68
2022/08/20 10:29:05;;;;;;;;;;;23.60;79.50;;;;;;5048667;28;19943;-69
2022/08/20 10:31:31;;;;;;;;;;;23.60;79.40;;;;;;5055725;28;19952;-68
2022/08/20 10:33:56;;;;;;;;;;;23.60;79.50;;;;;;5057881;28;20506;-68
2022/08/20 10:36:22;;;;;;;;;;;23.70;79.30;;;;;;5053848;28;19996;-68
2022/08/20 10:38:48;;;;;;;;;;;23.80;79.50;;;;;;5049110;28;19996;-68
2022/08/20 10:41:13;;;;;;;;;;;23.80;78.80;;;;;;5052764;28;19916;-68
2022/08/20 10:43:39;;;;;;;;;;;23.90;78.70;;;;;;5048727;28;19958;-68
2022/08/20 10:46:04;;;;;;;;;;;24.00;78.30;;;;;;5049050;28;20365;-68
2022/08/20 10:48:30;;;;;;;;;;;24.10;78.20;;;;;;5048934;28;20630;-68
2022/08/20 10:50:56;;;;;;;;;;;24.10;77.90;;;;;;5043562;28;20311;-68
2022/08/20 10:53:22;;;;;;;;;;;24.20;78.00;;;;;;5048681;28;19917;-68
2022/08/20 10:55:47;;;;;;;;;;;24.30;77.80;;;;;;5049668;28;20423;-68
2022/08/20 10:58:13;;;;;;;;;;;24.40;77.60;;;;;;5048660;28;19912;-69
2022/08/20 11:00:38;;;;;;;;;;;24.40;77.20;;;;;;5050551;28;20377;-68
2022/08/20 11:03:04;;;;;;;;;;;24.50;77.00;;;;;;5055304;28;20354;-69
2022/08/20 11:05:30;;;;;;;;;;;24.60;76.70;;;;;;5052285;28;19908;-68
2022/08/20 11:07:55;;;;;;;;;;;24.60;77.10;;;;;;5049081;28;19935;-68
2022/08/20 11:10:21;;;;;;;;;;;24.60;77.10;;;;;;5030368;28;19916;-68
2022/08/20 11:12:47;;;;;;;;;;;24.70;76.90;;;;;;5060340;28;19919;-68
2022/08/20 11:15:13;;;;;;;;;;;24.70;77.20;;;;;;5066624;28;19959;-69
2022/08/20 11:17:40;;;;;;;;;;;24.80;76.60;;;;;;5067589;28;20293;-69
2022/08/20 11:20:06;;;;;;;;;;;24.90;76.60;;;;;;5067249;28;20378;-69
2022/08/20 11:22:32;;;;;;;;;;;24.90;76.90;;;;;;5066674;28;19916;-69
2022/08/20 11:24:57;;;;;;;;;;;24.90;76.60;;;;;;5067109;28;19919;-69
2022/08/20 11:27:25;;;;;;;;;;;25.00;76.50;;;;;;5065516;28;19999;-70
2022/08/20 11:29:50;;;;;;;;;;;25.10;76.40;;;;;;5052865;28;19917;-70
2022/08/20 11:32:16;;;;;;;;;;;25.10;76.30;;;;;;5056344;28;19917;-70
2022/08/20 11:34:41;;;;;;;;;;;25.20;76.30;;;;;;5047035;28;19924;-70
2022/08/20 11:37:07;;;;;;;;;;;25.30;76.30;;;;;;5061239;28;19928;-69
2022/08/20 11:39:33;;;;;;;;;;;25.30;76.10;;;;;;5042307;28;19947;-69
2022/08/20 11:41:58;;;;;;;;;;;25.30;75.90;;;;;;5046630;28;19913;-69
2022/08/20 11:44:24;;;;;;;;;;;25.40;76.00;;;;;;5046801;28;19955;-69
2022/08/20 11:46:49;;;;;;;;;;;25.50;76.00;;;;;;5046801;28;20282;-69
2022/08/20 11:49:15;;;;;;;;;;;25.60;75.80;;;;;;5046205;28;20409;-70
2022/08/20 11:51:40;;;;;;;;;;;25.60;75.60;;;;;;5048703;28;20019;-69
2022/08/20 11:54:06;;;;;;;;;;;25.70;75.80;;;;;;5046734;28;19912;-69
2022/08/20 11:56:31;;;;;;;;;;;25.70;75.50;;;;;;5047799;28;19935;-70
2022/08/20 11:58:57;;;;;;;;;;;25.60;75.60;;;;;;5066648;28;19912;-70
2022/08/20 12:01:23;;;;;;;;;;;25.60;75.70;;;;;;5054426;28;20388;-70
2022/08/20 12:03:48;;;;;;;;;;;25.70;75.50;;;;;;5053682;28;19971;-70
2022/08/20 12:06:14;;;;;;;;;;;25.70;75.60;;;;;;5051955;28;19920;-69
2022/08/20 12:08:39;;;;;;;;;;;25.80;75.50;;;;;;5053702;28;20273;-69
2022/08/20 12:11:05;;;;;;;;;;;25.80;75.60;;;;;;5046982;28;19920;-70
2022/08/20 12:13:32;;;;;;;;;;;25.80;75.20;;;;;;5047394;28;19912;-70
2022/08/20 12:15:58;;;;;;;;;;;25.90;74.90;;;;;;5047291;28;19913;-70
2022/08/20 12:18:23;;;;;;;;;;;25.90;74.90;;;;;;5046928;28;19919;-71
2022/08/20 12:20:49;;;;;;;;;;;26.00;74.70;;;;;;5046837;28;19999;-70
2022/08/20 12:23:14;;;;;;;;;;;26.00;74.50;;;;;;5047109;28;19955;-69
2022/08/20 12:25:40;;;;;;;;;;;26.10;75.00;;;;;;5047369;28;19959;-70
2022/08/20 12:28:06;;;;;;;;;;;26.20;75.00;;;;;;5054229;28;20324;-71
2022/08/20 12:30:32;;;;;;;;;;;26.20;74.90;;;;;;5052347;28;19917;-70
2022/08/20 12:32:57;;;;;;;;;;;26.30;74.50;;;;;;5050392;28;19919;-70
2022/08/20 12:35:23;;;;;;;;;;;26.30;74.60;;;;;;5047097;28;19966;-70
2022/08/20 12:37:49;;;;;;;;;;;26.30;74.10;;;;;;5046178;28;20297;-69
2022/08/20 12:40:16;;;;;;;;;;;26.40;74.40;;;;;;5047110;28;19920;-69
2022/08/20 12:42:41;;;;;;;;;;;26.30;74.40;;;;;;5045757;28;19920;-69
2022/08/20 12:45:08;;;;;;;;;;;26.40;74.30;;;;;;5046080;28;19920;-70
2022/08/20 12:47:35;;;;;;;;;;;26.40;74.10;;;;;;5046115;28;19951;-69
2022/08/20 12:50:03;;;;;;;;;;;26.40;74.60;;;;;;5045950;28;19916;-70
2022/08/20 12:52:29;;;;;;;;;;;26.50;73.90;;;;;;5046393;28;19913;-70
2022/08/20 12:54:55;;;;;;;;;;;26.50;74.10;;;;;;5045727;28;19916;-70
2022/08/20 12:57:21;;;;;;;;;;;26.60;73.60;;;;;;5060805;28;19999;-69
2022/08/20 12:59:46;;;;;;;;;;;26.70;73.40;;;;;;5053049;28;20008;-70
2022/08/20 13:02:12;;;;;;;;;;;26.70;73.60;;;;;;5051930;28;20504;-70
2022/08/20 13:04:37;;;;;;;;;;;26.80;73.40;;;;;;5028322;28;19917;-70
2022/08/20 13:07:03;;;;;;;;;;;26.80;73.40;;;;;;5051373;28;19913;-71
2022/08/20 13:09:29;;;;;;;;;;;26.90;72.60;;;;;;5050443;28;19919;-70
2022/08/20 13:11:54;;;;;;;;;;;26.90;72.90;;;;;;5064653;28;19994;-70
2022/08/20 13:14:20;;;;;;;;;;;27.00;72.20;;;;;;5059288;28;19917;-70
2022/08/20 13:16:45;;;;;;;;;;;27.00;72.60;;;;;;5045425;28;19955;-69
2022/08/20 13:19:13;;;;;;;;;;;27.10;72.00;;;;;;5052430;28;20347;-69
2022/08/20 13:21:38;;;;;;;;;;;27.10;72.50;;;;;;5045441;28;19948;-70
2022/08/20 13:24:04;;;;;;;;;;;27.20;71.70;;;;;;5045718;28;19987;-69
2022/08/20 13:26:29;;;;;;;;;;;27.20;72.00;;;;;;5046404;28;20777;-70
2022/08/20 13:28:55;;;;;;;;;;;27.30;71.70;;;;;;5046080;28;19913;-70
2022/08/20 13:31:20;;;;;;;;;;;27.30;70.90;;;;;;5059223;28;19950;-67
2022/08/20 13:33:46;;;;;;;;;;;27.30;71.10;;;;;;5054325;28;20507;-68
2022/08/20 13:36:12;;;;;;;;;;;27.30;71.20;;;;;;5045338;28;19927;-67
2022/08/20 13:38:37;;;;;;;;;;;27.40;71.10;;;;;;5044192;28;20477;-67
2022/08/20 13:41:03;;;;;;;;;;;27.50;71.30;;;;;;5045633;28;20000;-68
2022/08/20 13:43:28;;;;;;;;;;;27.50;70.90;;;;;;5045609;28;19917;-71
2022/08/20 13:45:54;;;;;;;;;;;27.60;70.70;;;;;;5027967;28;20012;-71
2022/08/20 13:48:19;;;;;;;;;;;27.70;69.90;;;;;;5049817;28;19913;-71
2022/08/20 13:50:45;;;;;;;;;;;27.70;70.50;;;;;;5045674;28;19909;-69
2022/08/20 13:53:10;;;;;;;;;;;27.60;70.50;;;;;;5045941;28;19913;-70
2022/08/20 13:55:36;;;;;;;;;;;27.60;70.90;;;;;;5045283;28;19980;-70
2022/08/20 13:58:05;;;;;;;;;;;27.50;70.70;;;;;;5045734;28;20378;-71
2022/08/20 14:00:31;;;;;;;;;;;27.40;71.40;;;;;;5047416;28;20070;-73
2022/08/20 14:02:57;;;;;;;;;;;27.40;71.60;;;;;;5051796;28;19943;-73
2022/08/20 14:05:22;;;;;;;;;;;27.20;71.20;;;;;;5052889;28;19917;-69
2022/08/20 14:07:49;;;;;;;;;;;27.20;72.10;;;;;;5046825;28;19912;-70
2022/08/20 14:10:19;;;;;;;;;;;27.10;73.10;;;;;;5044589;28;19913;-68
2022/08/20 14:12:45;;;;;;;;;;;27.00;73.00;;;;;;5043641;28;19920;-68
2022/08/20 14:15:11;;;;;;;;;;;27.00;71.80;;;;;;5045677;28;19909;-68
2022/08/20 14:17:38;;;;;;;;;;;27.10;72.00;;;;;;5051877;28;20011;-68
2022/08/20 14:20:06;;;;;;;;;;;27.00;70.20;;;;;;5044819;28;20023;-70
2022/08/20 14:22:32;;;;;;;;;;;27.00;69.40;;;;;;5032072;28;19928;-71